createdAt,value
2023-06-04T00:00:18.764Z,7.22
2023-06-04T00:01:28.130Z,6.00
2023-06-04T00:02:47.185Z,7.32
2023-06-04T00:03:56.738Z,7.75
2023-06-04T00:05:04.848Z,5.75
2023-06-04T00:06:09.854Z,7.13
2023-06-04T00:07:16.553Z,6.43
2023-06-04T00:08:20.036Z,6.65
2023-06-04T00:09:27.240Z,6.40
2023-06-04T00:10:31.760Z,9.13
2023-06-04T00:11:41.412Z,7.78
2023-06-04T00:12:45.619Z,6.82
2023-06-04T00:13:55.866Z,6.32
2023-06-04T00:15:00.537Z,5.50
2023-06-04T00:16:14.686Z,6.78
2023-06-04T00:17:25.196Z,5.13
2023-06-04T00:18:32.459Z,6.72
2023-06-04T00:19:36.234Z,7.38
2023-06-04T00:20:42.633Z,8.02
2023-06-04T00:21:47.513Z,5.80
2023-06-04T00:23:00.140Z,5.88
2023-06-04T00:25:17.999Z,6.32
2023-06-04T00:26:26.811Z,5.97
2023-06-04T00:27:39.704Z,6.88
2023-06-04T00:28:43.439Z,13.60
2023-06-04T00:29:49.886Z,5.45
2023-06-04T00:30:54.623Z,6.88
2023-06-04T00:32:01.679Z,7.47
2023-06-04T00:33:06.097Z,5.80
2023-06-04T00:34:13.480Z,5.53
2023-06-04T00:35:21.476Z,8.40
2023-06-04T00:36:29.577Z,4.47
2023-06-04T00:37:36.843Z,7.53
2023-06-04T00:38:41.753Z,7.35
2023-06-04T00:39:52.770Z,7.13
2023-06-04T00:40:57.850Z,6.22
2023-06-04T00:42:05.327Z,7.55
2023-06-04T00:43:13.216Z,6.70
2023-06-04T00:44:20.156Z,6.07
2023-06-04T00:45:27.783Z,6.18
2023-06-04T00:46:35.394Z,6.68
2023-06-04T00:47:39.583Z,6.88
2023-06-04T00:48:47.274Z,7.25
2023-06-04T00:49:56.892Z,5.18
2023-06-04T00:51:00.988Z,6.70
2023-06-04T00:52:14.412Z,5.72
2023-06-04T00:53:19.071Z,4.90
2023-06-04T00:54:29.078Z,9.52
2023-06-04T00:55:33.681Z,6.75
2023-06-04T00:56:49.342Z,8.70
2023-06-04T00:57:54.821Z,6.03
2023-06-04T00:59:05.344Z,5.63
2023-06-04T01:00:11.925Z,6.20
2023-06-04T01:01:26.460Z,8.57
2023-06-04T01:02:32.467Z,6.00
2023-06-04T01:03:43.332Z,7.57
2023-06-04T01:04:53.035Z,5.15
2023-06-04T01:06:06.960Z,5.60
2023-06-04T01:07:15.151Z,6.32
2023-06-04T01:08:22.372Z,6.57
2023-06-04T01:09:27.263Z,5.70
2023-06-04T01:10:33.893Z,7.80
2023-06-04T01:11:41.808Z,7.43
2023-06-04T01:12:49.100Z,7.20
2023-06-04T01:13:56.466Z,5.10
2023-06-04T01:15:10.272Z,5.95
2023-06-04T01:16:16.891Z,5.85
2023-06-04T01:17:30.768Z,5.55
2023-06-04T01:18:39.233Z,6.28
2023-06-04T01:20:19.826Z,8.50
2023-06-04T01:21:25.120Z,6.50
2023-06-04T01:22:42.838Z,5.50
2023-06-04T01:23:51.397Z,6.32
2023-06-04T01:25:03.409Z,6.43
2023-06-04T01:26:12.042Z,5.72
2023-06-04T01:27:24.400Z,6.28
2023-06-04T01:28:32.191Z,5.70
2023-06-04T01:29:50.829Z,7.22
2023-06-04T01:31:05.048Z,5.22
2023-06-04T01:32:13.362Z,5.38
2023-06-04T01:33:22.430Z,7.10
2023-06-04T01:34:35.438Z,5.80
2023-06-04T01:35:39.820Z,7.25
2023-06-04T01:36:46.474Z,6.65
2023-06-04T01:37:52.930Z,6.68
2023-06-04T01:39:03.471Z,6.35
2023-06-04T01:40:10.136Z,5.40
2023-06-04T01:41:16.717Z,6.40
2023-06-04T01:42:28.039Z,5.43
2023-06-04T01:43:43.055Z,5.75
2023-06-04T01:44:51.062Z,7.40
2023-06-04T01:46:03.112Z,5.32
2023-06-04T01:47:07.178Z,6.68
2023-06-04T01:48:17.023Z,5.45
2023-06-04T01:49:23.304Z,6.65
2023-06-04T01:50:34.351Z,12.13
2023-06-04T01:51:38.891Z,8.07
2023-06-04T01:52:49.975Z,6.72
2023-06-04T01:53:57.804Z,5.07
2023-06-04T01:55:04.774Z,6.55
2023-06-04T01:56:10.420Z,5.38
2023-06-04T01:57:19.065Z,5.28
2023-06-04T01:58:29.006Z,5.32
2023-06-04T01:59:33.983Z,7.05
2023-06-04T02:00:40.641Z,6.20
2023-06-04T02:01:47.292Z,7.55
2023-06-04T02:02:57.936Z,5.90
2023-06-04T02:04:02.025Z,5.90
2023-06-04T02:05:10.273Z,6.13
2023-06-04T02:06:19.307Z,6.80
2023-06-04T02:07:23.496Z,5.30
2023-06-04T02:08:32.223Z,5.47
2023-06-04T02:09:38.042Z,6.80
2023-06-04T02:10:48.777Z,6.72
2023-06-04T02:11:55.472Z,5.95
2023-06-04T02:13:04.275Z,8.02
2023-06-04T02:14:08.529Z,5.82
2023-06-04T02:15:16.821Z,5.90
2023-06-04T02:16:21.229Z,8.23
2023-06-04T02:17:34.470Z,6.13
2023-06-04T02:18:41.936Z,6.50
2023-06-04T02:20:00.203Z,7.60
2023-06-04T02:21:04.129Z,8.13
2023-06-04T02:22:19.528Z,6.80
2023-06-04T02:23:39.084Z,5.38
2023-06-04T02:24:44.384Z,7.93
2023-06-04T02:25:52.071Z,6.18
2023-06-04T02:26:56.942Z,12.90
2023-06-04T02:28:04.093Z,6.35
2023-06-04T02:29:09.136Z,5.97
2023-06-04T02:30:18.823Z,9.60
2023-06-04T02:31:23.380Z,5.10
2023-06-04T02:32:38.296Z,6.13
2023-06-04T02:33:45.447Z,7.00
2023-06-04T02:34:56.129Z,8.55
2023-06-04T02:36:07.390Z,5.13
2023-06-04T02:37:11.313Z,5.32
2023-06-04T02:38:18.300Z,7.10
2023-06-04T02:39:23.233Z,5.60
2023-06-04T02:40:30.518Z,6.85
2023-06-04T02:41:46.892Z,5.60
2023-06-04T02:43:06.040Z,6.80
2023-06-04T02:44:10.226Z,5.80
2023-06-04T02:45:19.593Z,5.22
2023-06-04T02:46:24.309Z,5.20
2023-06-04T02:47:39.579Z,6.07
2023-06-04T02:48:49.191Z,6.75
2023-06-04T02:49:57.247Z,6.07
2023-06-04T02:51:04.898Z,5.30
2023-06-04T02:52:16.145Z,6.13
2023-06-04T02:53:26.234Z,5.47
2023-06-04T02:54:39.329Z,6.32
2023-06-04T02:55:49.402Z,7.38
2023-06-04T02:57:03.028Z,5.15
2023-06-04T02:58:13.566Z,5.15
2023-06-04T02:59:23.020Z,5.50
2023-06-04T03:00:27.857Z,5.15
2023-06-04T03:01:45.166Z,5.18
2023-06-04T03:02:55.419Z,7.13
2023-06-04T03:04:08.037Z,4.97
2023-06-04T03:05:14.492Z,5.45
2023-06-04T03:06:23.069Z,4.90
2023-06-04T03:07:29.001Z,4.95
2023-06-04T03:08:36.736Z,4.88
2023-06-04T03:09:44.725Z,7.03
2023-06-04T03:10:58.226Z,6.93
2023-06-04T03:12:06.026Z,5.30
2023-06-04T03:13:15.779Z,5.30
2023-06-04T03:14:34.583Z,9.30
2023-06-04T03:15:50.975Z,8.30
2023-06-04T03:16:57.270Z,5.05
2023-06-04T03:18:14.336Z,4.72
2023-06-04T03:19:18.874Z,4.53
2023-06-04T03:20:27.656Z,5.45
2023-06-04T03:21:37.382Z,6.95
2023-06-04T03:22:45.330Z,5.78
2023-06-04T03:23:52.294Z,6.32
2023-06-04T03:25:01.169Z,6.88
2023-06-04T03:26:05.824Z,4.80
2023-06-04T03:27:27.267Z,5.30
2023-06-04T03:28:36.295Z,5.60
2023-06-04T03:29:51.974Z,6.40
2023-06-04T03:30:59.007Z,4.68
2023-06-04T03:32:04.511Z,5.13
2023-06-04T03:33:14.462Z,7.13
2023-06-04T03:34:22.744Z,5.57
2023-06-04T03:35:31.999Z,5.63
2023-06-04T03:36:40.040Z,6.65
2023-06-04T03:37:44.176Z,5.90
2023-06-04T03:38:55.364Z,7.65
2023-06-04T03:40:05.526Z,9.57
2023-06-04T03:41:13.835Z,5.10
2023-06-04T03:42:19.512Z,6.43
2023-06-04T03:43:27.269Z,4.32
2023-06-04T03:44:32.635Z,4.90
2023-06-04T03:45:46.942Z,6.00
2023-06-04T03:46:54.619Z,7.78
2023-06-04T03:48:09.047Z,5.50
2023-06-04T03:49:19.753Z,4.65
2023-06-04T03:50:33.603Z,5.07
2023-06-04T03:51:42.327Z,6.43
2023-06-04T03:52:52.709Z,6.53
2023-06-04T03:54:00.220Z,4.70
2023-06-04T03:55:08.826Z,6.70
2023-06-04T03:56:12.913Z,5.32
2023-06-04T03:57:22.996Z,4.93
2023-06-04T03:58:28.698Z,7.47
2023-06-04T03:59:36.475Z,5.47
2023-06-04T04:00:50.226Z,6.20
2023-06-04T04:01:56.673Z,6.30
2023-06-04T04:03:01.890Z,5.55
2023-06-04T04:04:11.839Z,4.82
2023-06-04T04:05:19.172Z,5.18
2023-06-04T04:06:32.057Z,6.35
2023-06-04T04:07:36.809Z,4.50
2023-06-04T04:08:46.073Z,6.45
2023-06-04T04:09:50.697Z,6.22
2023-06-04T04:10:57.725Z,5.53
2023-06-04T04:12:09.926Z,7.15
2023-06-04T04:13:17.877Z,4.78
2023-06-04T04:14:26.413Z,4.90
2023-06-04T04:15:34.228Z,5.18
2023-06-04T04:16:38.490Z,6.57
2023-06-04T04:17:52.335Z,6.55
2023-06-04T04:18:59.993Z,4.43
2023-06-04T04:20:10.335Z,4.60
2023-06-04T04:21:27.393Z,4.53
2023-06-04T04:22:35.134Z,6.47
2023-06-04T04:23:47.740Z,6.80
2023-06-04T04:24:52.525Z,5.78
2023-06-04T04:26:04.118Z,4.72
2023-06-04T04:28:26.769Z,4.53
2023-06-04T04:29:34.444Z,5.95
2023-06-04T04:30:45.638Z,5.55
2023-06-04T04:31:50.287Z,6.15
2023-06-04T04:33:02.622Z,4.65
2023-06-04T04:34:10.453Z,4.90
2023-06-04T04:35:20.070Z,4.70
2023-06-04T04:36:31.412Z,5.05
2023-06-04T04:37:35.574Z,5.35
2023-06-04T04:38:52.584Z,6.25
2023-06-04T04:40:00.304Z,5.10
2023-06-04T04:41:09.556Z,3.97
2023-06-04T04:42:16.732Z,5.13
2023-06-04T04:43:33.786Z,4.70
2023-06-04T04:44:38.338Z,7.05
2023-06-04T04:45:47.116Z,6.45
2023-06-04T04:46:51.457Z,7.10
2023-06-04T04:48:03.447Z,4.55
2023-06-04T04:49:10.864Z,5.15
2023-06-04T04:50:18.535Z,8.27
2023-06-04T04:51:31.079Z,5.30
2023-06-04T04:52:38.531Z,4.65
2023-06-04T04:53:51.696Z,6.07
2023-06-04T04:54:59.446Z,4.78
2023-06-04T04:56:09.452Z,4.70
2023-06-04T04:57:19.224Z,6.00
2023-06-04T04:58:23.282Z,5.72
2023-06-04T04:59:36.391Z,5.93
2023-06-04T05:00:41.462Z,5.38
2023-06-04T05:01:57.272Z,7.00
2023-06-04T05:03:05.647Z,4.38
2023-06-04T05:04:13.192Z,5.05
2023-06-04T05:05:17.694Z,4.90
2023-06-04T05:06:25.391Z,4.68
2023-06-04T05:07:37.560Z,4.75
2023-06-04T05:08:47.422Z,6.78
2023-06-04T05:09:54.740Z,6.70
2023-06-04T05:11:02.123Z,5.82
2023-06-04T05:12:07.397Z,5.05
2023-06-04T05:13:14.573Z,5.03
2023-06-04T05:14:19.270Z,5.00
2023-06-04T05:15:31.932Z,4.53
2023-06-04T05:16:45.948Z,5.90
2023-06-04T05:17:58.391Z,5.68
2023-06-04T05:19:04.434Z,5.20
2023-06-04T05:20:14.884Z,4.63
2023-06-04T05:21:22.393Z,7.00
2023-06-04T05:22:31.149Z,5.05
2023-06-04T05:23:39.296Z,7.13
2023-06-04T05:24:46.535Z,6.40
2023-06-04T05:25:54.252Z,7.47
2023-06-04T05:26:59.213Z,5.47
2023-06-04T05:28:10.677Z,5.10
2023-06-04T05:29:16.679Z,5.15
2023-06-04T05:30:30.271Z,5.95
2023-06-04T05:31:34.985Z,5.85
2023-06-04T05:32:45.846Z,6.00
2023-06-04T05:33:50.045Z,6.15
2023-06-04T05:34:58.960Z,5.10
2023-06-04T05:36:10.375Z,4.65
2023-06-04T05:37:18.934Z,5.93
2023-06-04T05:38:27.810Z,7.60
2023-06-04T05:39:35.616Z,6.60
2023-06-04T05:40:45.808Z,5.88
2023-06-04T05:41:50.171Z,9.75
2023-06-04T05:43:00.314Z,4.47
2023-06-04T05:44:07.488Z,4.45
2023-06-04T05:45:17.743Z,5.18
2023-06-04T05:46:24.046Z,4.50
2023-06-04T05:47:30.833Z,4.97
2023-06-04T05:48:38.708Z,5.78
2023-06-04T05:49:43.060Z,7.00
2023-06-04T05:50:53.945Z,6.43
2023-06-04T05:52:00.712Z,7.47
2023-06-04T05:53:09.686Z,4.95
2023-06-04T05:54:14.538Z,6.07
2023-06-04T05:55:24.986Z,6.68
2023-06-04T05:56:33.140Z,5.07
2023-06-04T05:57:40.710Z,5.28
2023-06-04T05:58:45.399Z,6.20
2023-06-04T05:59:53.696Z,6.60
2023-06-04T06:00:58.388Z,5.32
2023-06-04T06:02:06.142Z,5.10
2023-06-04T06:03:11.978Z,5.18
2023-06-04T06:04:19.886Z,6.22
2023-06-04T06:05:23.808Z,4.03
2023-06-04T06:06:30.737Z,5.70
2023-06-04T06:07:37.913Z,5.13
2023-06-04T06:08:49.694Z,6.55
2023-06-04T06:11:13.588Z,5.95
2023-06-04T06:12:22.340Z,5.68
2023-06-04T06:13:29.895Z,5.97
2023-06-04T06:14:39.144Z,5.78
2023-06-04T06:15:46.449Z,6.20
2023-06-04T06:16:56.918Z,6.70
2023-06-04T06:18:03.665Z,5.18
2023-06-04T06:19:07.846Z,4.53
2023-06-04T06:20:19.258Z,5.60
2023-06-04T06:21:23.880Z,8.10
2023-06-04T06:22:30.978Z,4.75
2023-06-04T06:23:36.145Z,6.22
2023-06-04T06:24:45.180Z,6.93
2023-06-04T06:25:58.774Z,5.97
2023-06-04T06:27:05.828Z,5.85
2023-06-04T06:28:13.556Z,5.70
2023-06-04T06:29:20.917Z,5.20
2023-06-04T06:30:25.719Z,5.10
2023-06-04T06:31:34.686Z,5.75
2023-06-04T06:32:48.068Z,6.53
2023-06-04T06:33:52.454Z,6.88
2023-06-04T06:35:02.837Z,5.50
2023-06-04T06:36:08.039Z,9.93
2023-06-04T06:37:14.620Z,6.68
2023-06-04T06:38:19.325Z,7.18
2023-06-04T06:39:28.849Z,10.23
2023-06-04T06:40:33.570Z,5.40
2023-06-04T06:41:44.028Z,5.97
2023-06-04T06:42:53.875Z,8.95
2023-06-04T06:44:06.802Z,5.32
2023-06-04T06:45:12.020Z,5.10
2023-06-04T06:46:19.280Z,5.32
2023-06-04T06:47:24.012Z,8.70
2023-06-04T06:48:38.669Z,284.58
2023-06-04T06:49:43.361Z,941.40
2023-06-04T06:50:50.376Z,877.45
2023-06-04T06:51:55.084Z,4.85
2023-06-04T06:53:10.017Z,5.63
2023-06-04T06:54:17.038Z,6.97
2023-06-04T06:55:24.052Z,6.30
2023-06-04T06:56:28.809Z,5.95
2023-06-04T06:57:37.453Z,4.78
2023-06-04T06:58:45.300Z,6.55
2023-06-04T06:59:56.486Z,8.15
2023-06-04T07:01:01.428Z,6.38
2023-06-04T07:02:09.510Z,7.10
2023-06-04T07:03:22.727Z,9.25
2023-06-04T07:04:33.321Z,6.15
2023-06-04T07:05:43.417Z,6.10
2023-06-04T07:06:54.308Z,9.00
2023-06-04T07:08:02.925Z,5.68
2023-06-04T07:09:11.698Z,6.70
2023-06-04T07:10:21.899Z,8.23
2023-06-04T07:11:28.226Z,5.57
2023-06-04T07:12:35.768Z,6.30
2023-06-04T07:13:40.387Z,7.45
2023-06-04T07:14:50.299Z,6.22
2023-06-04T07:16:01.422Z,7.07
2023-06-04T07:17:08.237Z,6.28
2023-06-04T07:18:13.223Z,5.32
2023-06-04T07:19:22.235Z,6.22
2023-06-04T07:20:29.833Z,6.28
2023-06-04T07:21:36.911Z,6.35
2023-06-04T07:22:58.417Z,8.90
2023-06-04T07:24:08.319Z,5.30
2023-06-04T07:25:17.602Z,7.43
2023-06-04T07:26:34.947Z,5.55
2023-06-04T07:27:43.452Z,7.45
2023-06-04T07:28:50.742Z,6.30
2023-06-04T07:29:59.383Z,6.70
2023-06-04T07:31:09.967Z,5.88
2023-06-04T07:32:17.706Z,5.30
2023-06-04T07:33:32.641Z,4.85
2023-06-04T07:34:39.074Z,7.75
2023-06-04T07:35:46.295Z,6.70
2023-06-04T07:36:51.529Z,7.68
2023-06-04T07:37:59.530Z,7.38
2023-06-04T07:39:04.942Z,5.97
2023-06-04T07:40:13.268Z,5.43
2023-06-04T07:41:18.496Z,5.63
2023-06-04T07:42:26.119Z,6.40
2023-06-04T07:43:33.619Z,5.63
2023-06-04T07:44:41.407Z,6.28
2023-06-04T07:45:50.681Z,11.48
2023-06-04T07:46:57.690Z,7.10
2023-06-04T07:48:05.196Z,6.00
2023-06-04T07:49:11.025Z,7.32
2023-06-04T07:50:18.403Z,6.85
2023-06-04T07:51:23.689Z,5.32
2023-06-04T07:52:30.364Z,6.07
2023-06-04T07:53:38.026Z,8.02
2023-06-04T07:54:43.773Z,6.72
2023-06-04T07:55:52.283Z,6.93
2023-06-04T07:56:57.823Z,5.07
2023-06-04T07:58:09.606Z,5.43
2023-06-04T07:59:22.147Z,5.68
2023-06-04T08:00:29.184Z,5.55
2023-06-04T08:01:33.823Z,7.15
2023-06-04T08:02:49.103Z,7.93
2023-06-04T08:04:00.242Z,7.50
2023-06-04T08:05:10.084Z,5.40
2023-06-04T08:06:24.396Z,7.20
2023-06-04T08:07:28.892Z,12.23
2023-06-04T08:08:36.369Z,22.17
2023-06-04T08:09:53.293Z,12.50
2023-06-04T08:11:00.065Z,9.55
2023-06-04T08:12:11.228Z,7.05
2023-06-04T08:13:19.315Z,6.32
2023-06-04T08:14:29.959Z,8.05
2023-06-04T08:15:37.740Z,6.20
2023-06-04T08:16:46.335Z,7.70
2023-06-04T08:17:57.404Z,9.38
2023-06-04T08:19:06.743Z,6.88
2023-06-04T08:20:17.006Z,6.35
2023-06-04T08:21:31.691Z,7.00
2023-06-04T08:22:47.490Z,10.23
2023-06-04T08:23:57.850Z,69.38
2023-06-04T08:25:17.853Z,45.25
2023-06-04T08:26:22.548Z,20.40
2023-06-04T08:27:47.308Z,16.83
2023-06-04T08:28:52.230Z,855.55
2023-06-04T08:30:02.859Z,855.17
2023-06-04T08:31:13.368Z,6.63
2023-06-04T08:32:22.157Z,8.25
2023-06-04T08:33:42.800Z,5.78
2023-06-04T08:34:48.123Z,8.15
2023-06-04T08:35:50.774Z,9.90
2023-06-04T08:36:56.146Z,13.13
2023-06-04T08:37:59.426Z,10.02
2023-06-04T08:39:04.843Z,8.25
2023-06-04T08:40:10.411Z,7.90
2023-06-04T08:41:20.407Z,10.15
2023-06-04T08:42:28.204Z,10.35
2023-06-04T08:43:34.942Z,8.40
2023-06-04T08:44:37.286Z,9.10
2023-06-04T08:45:44.272Z,8.23
2023-06-04T08:46:52.984Z,7.25
2023-06-04T08:47:59.393Z,5.78
2023-06-04T08:49:06.158Z,7.75
2023-06-04T08:50:15.429Z,6.53
2023-06-04T08:51:19.368Z,7.93
2023-06-04T08:52:24.814Z,6.22
2023-06-04T08:53:28.189Z,7.82
2023-06-04T08:54:35.454Z,6.57
2023-06-04T08:55:39.727Z,8.88
2023-06-04T08:56:48.382Z,9.15
2023-06-04T08:57:52.843Z,8.40
2023-06-04T08:59:05.216Z,6.68
2023-06-04T09:00:13.256Z,5.97
2023-06-04T09:01:19.539Z,7.35
2023-06-04T09:02:25.324Z,8.50
2023-06-04T09:03:28.144Z,8.02
2023-06-04T09:04:36.580Z,8.30
2023-06-04T09:05:41.385Z,8.93
2023-06-04T09:06:47.106Z,9.43
2023-06-04T09:07:53.148Z,8.32
2023-06-04T09:09:02.015Z,8.45
2023-06-04T09:10:13.407Z,7.10
2023-06-04T09:11:21.164Z,8.45
2023-06-04T09:12:30.236Z,8.20
2023-06-04T09:13:36.260Z,8.10
2023-06-04T09:14:41.157Z,8.00
2023-06-04T09:15:45.452Z,14.80
2023-06-04T09:16:52.005Z,8.05
2023-06-04T09:17:54.647Z,10.75
2023-06-04T09:19:01.594Z,7.82
2023-06-04T09:20:10.166Z,9.15
2023-06-04T09:21:15.236Z,8.75
2023-06-04T09:22:17.545Z,9.18
2023-06-04T09:23:23.953Z,12.75
2023-06-04T09:24:31.461Z,8.18
2023-06-04T09:25:36.456Z,8.07
2023-06-04T09:26:38.873Z,7.97
2023-06-04T09:27:45.193Z,10.52
2023-06-04T09:28:51.158Z,9.25
2023-06-04T09:29:55.032Z,8.10
2023-06-04T09:31:00.230Z,7.00
2023-06-04T09:32:05.152Z,6.63
2023-06-04T09:33:10.956Z,7.88
2023-06-04T09:34:16.617Z,7.85
2023-06-04T09:35:22.331Z,7.60
2023-06-04T09:36:34.566Z,8.20
2023-06-04T09:37:37.003Z,6.88
2023-06-04T09:38:42.316Z,7.75
2023-06-04T09:39:47.725Z,8.13
2023-06-04T09:40:51.312Z,8.57
2023-06-04T09:42:03.416Z,8.32
2023-06-04T09:43:07.336Z,8.35
2023-06-04T09:44:14.816Z,8.18
2023-06-04T09:45:29.128Z,8.30
2023-06-04T09:46:35.262Z,7.88
2023-06-04T09:47:41.380Z,8.95
2023-06-04T09:48:47.804Z,8.68
2023-06-04T09:49:52.158Z,7.72
2023-06-04T09:51:10.957Z,7.85
2023-06-04T09:52:14.053Z,6.68
2023-06-04T09:53:19.678Z,11.30
2023-06-04T09:54:22.088Z,8.55
2023-06-04T09:55:27.404Z,6.63
2023-06-04T09:56:30.275Z,8.30
2023-06-04T09:57:37.559Z,8.02
2023-06-04T09:58:41.685Z,8.38
2023-06-04T09:59:49.732Z,8.80
2023-06-04T10:00:52.306Z,9.93
2023-06-04T10:01:57.556Z,9.90
2023-06-04T10:03:04.342Z,8.35
2023-06-04T10:04:13.273Z,9.15
2023-06-04T10:05:16.201Z,9.43
2023-06-04T10:06:24.611Z,8.73
2023-06-04T10:07:28.021Z,10.18
2023-06-04T10:08:35.292Z,7.72
2023-06-04T10:09:46.724Z,9.80
2023-06-04T10:10:54.375Z,9.95
2023-06-04T10:12:01.188Z,10.35
2023-06-04T10:13:11.122Z,7.00
2023-06-04T10:14:21.608Z,7.70
2023-06-04T10:15:27.295Z,7.75
2023-06-04T10:16:35.053Z,7.53
2023-06-04T10:17:41.795Z,9.38
2023-06-04T10:18:46.831Z,9.98
2023-06-04T10:19:55.316Z,8.10
2023-06-04T10:21:01.024Z,9.10
2023-06-04T10:22:11.382Z,9.50
2023-06-04T10:23:22.288Z,6.68
2023-06-04T10:24:28.275Z,7.55
2023-06-04T10:25:34.957Z,6.28
2023-06-04T10:26:42.959Z,6.45
2023-06-04T10:27:50.664Z,6.63
2023-06-04T10:28:58.128Z,9.20
2023-06-04T10:30:01.027Z,8.90
2023-06-04T10:31:06.254Z,6.75
2023-06-04T10:32:09.160Z,7.43
2023-06-04T10:33:16.926Z,9.48
2023-06-04T10:34:21.393Z,7.47
2023-06-04T10:35:34.511Z,6.88
2023-06-04T10:36:44.995Z,8.85
2023-06-04T10:37:54.809Z,9.23
2023-06-04T10:38:57.453Z,7.75
2023-06-04T10:40:06.103Z,8.13
2023-06-04T10:41:15.680Z,7.93
2023-06-04T10:42:22.558Z,7.88
2023-06-04T10:43:32.100Z,7.82
2023-06-04T10:44:50.709Z,10.88
2023-06-04T10:45:53.347Z,8.70
2023-06-04T10:46:58.239Z,10.80
2023-06-04T10:48:06.909Z,7.13
2023-06-04T10:49:11.749Z,7.28
2023-06-04T10:50:17.905Z,8.10
2023-06-04T10:51:34.415Z,6.85
2023-06-04T10:52:37.279Z,9.18
2023-06-04T10:53:45.033Z,8.35
2023-06-04T10:54:50.010Z,7.97
2023-06-04T10:55:54.908Z,10.52
2023-06-04T10:56:57.290Z,7.47
2023-06-04T10:58:05.154Z,8.57
2023-06-04T10:59:19.024Z,7.95
2023-06-04T11:00:24.103Z,6.00
2023-06-04T11:01:28.161Z,6.15
2023-06-04T11:02:33.513Z,9.80
2023-06-04T11:03:39.447Z,7.95
2023-06-04T11:04:45.210Z,8.00
2023-06-04T11:05:52.005Z,9.32
2023-06-04T11:07:05.118Z,9.35
2023-06-04T11:08:11.080Z,7.93
2023-06-04T11:09:18.133Z,7.90
2023-06-04T11:10:35.844Z,8.50
2023-06-04T11:11:42.344Z,10.55
2023-06-04T11:12:45.367Z,8.52
2023-06-04T11:13:50.384Z,9.45
2023-06-04T11:14:56.576Z,10.05
2023-06-04T11:16:01.553Z,8.18
2023-06-04T11:17:14.880Z,8.02
2023-06-04T11:18:21.519Z,8.88
2023-06-04T11:19:24.262Z,8.60
2023-06-04T11:20:30.355Z,6.90
2023-06-04T11:21:39.356Z,7.78
2023-06-04T11:22:41.678Z,12.90
2023-06-04T11:23:46.705Z,9.45
2023-06-04T11:24:57.960Z,10.35
2023-06-04T11:26:02.923Z,7.50
2023-06-04T11:27:12.459Z,7.55
2023-06-04T11:28:23.210Z,8.43
2023-06-04T11:29:26.147Z,9.82
2023-06-04T11:30:31.276Z,11.82
2023-06-04T11:31:43.834Z,10.35
2023-06-04T11:32:49.026Z,12.60
2023-06-04T11:33:51.307Z,9.45
2023-06-04T11:35:07.665Z,9.93
2023-06-04T11:36:10.428Z,9.38
2023-06-04T11:37:15.351Z,8.88
2023-06-04T11:38:17.563Z,8.23
2023-06-04T11:39:22.682Z,9.00
2023-06-04T11:40:28.390Z,7.95
2023-06-04T11:41:34.675Z,9.10
2023-06-04T11:42:44.258Z,9.77
2023-06-04T11:43:52.435Z,14.48
2023-06-04T11:44:57.833Z,13.57
2023-06-04T11:46:02.849Z,12.23
2023-06-04T11:47:08.175Z,202.10
2023-06-04T11:48:16.275Z,999.90
2023-06-04T11:49:20.515Z,999.90
2023-06-04T11:50:25.929Z,7.50
2023-06-04T11:51:28.870Z,8.90
2023-06-04T11:52:34.224Z,8.63
2023-06-04T11:53:41.521Z,10.52
2023-06-04T11:54:43.861Z,10.07
2023-06-04T11:55:51.857Z,10.60
2023-06-04T11:56:55.189Z,10.73
2023-06-04T11:58:00.752Z,11.57
2023-06-04T11:59:03.585Z,9.23
2023-06-04T12:00:13.460Z,9.40
2023-06-04T12:01:18.968Z,8.40
2023-06-04T12:02:24.213Z,12.63
2023-06-04T12:03:42.417Z,8.45
2023-06-04T12:04:44.900Z,10.15
2023-06-04T12:05:50.546Z,11.07
2023-06-04T12:06:54.277Z,9.73
2023-06-04T12:08:08.384Z,12.43
2023-06-04T12:09:23.984Z,9.75
2023-06-04T12:10:30.086Z,14.98
2023-06-04T12:11:36.007Z,8.60
2023-06-04T12:12:41.905Z,9.82
2023-06-04T12:13:44.340Z,11.80
2023-06-04T12:14:49.514Z,16.15
2023-06-04T12:15:53.699Z,15.25
2023-06-04T12:17:00.248Z,8.75
2023-06-04T12:18:05.508Z,8.63
2023-06-04T12:19:12.582Z,8.63
2023-06-04T12:20:17.615Z,8.05
2023-06-04T12:21:27.976Z,6.78
2023-06-04T12:22:36.108Z,8.45
2023-06-04T12:23:38.951Z,8.48
2023-06-04T12:24:54.696Z,13.07
2023-06-04T12:26:01.530Z,11.95
2023-06-04T12:27:10.626Z,10.07
2023-06-04T12:28:21.685Z,10.70
2023-06-04T12:29:24.406Z,10.50
2023-06-04T12:30:40.181Z,13.15
2023-06-04T12:31:44.068Z,14.07
2023-06-04T12:32:49.969Z,16.85
2023-06-04T12:33:52.666Z,19.38
2023-06-04T12:34:58.384Z,16.08
2023-06-04T12:36:04.510Z,24.33
2023-06-04T12:37:07.925Z,15.93
2023-06-04T12:38:13.228Z,11.20
2023-06-04T12:39:16.980Z,12.68
2023-06-04T12:40:22.026Z,16.52
2023-06-04T12:41:24.544Z,14.80
2023-06-04T12:42:32.874Z,14.15
2023-06-04T12:43:38.710Z,28.23
2023-06-04T12:44:44.292Z,11.88
2023-06-04T12:45:47.681Z,11.45
2023-06-04T12:46:52.581Z,12.02
2023-06-04T12:47:55.038Z,10.13
2023-06-04T12:49:00.207Z,11.82
2023-06-04T12:50:02.723Z,9.02
2023-06-04T12:51:08.159Z,10.00
2023-06-04T12:52:15.268Z,9.23
2023-06-04T12:53:17.987Z,9.02
2023-06-04T12:54:22.989Z,9.95
2023-06-04T12:55:27.984Z,9.00
2023-06-04T12:56:33.474Z,9.15
2023-06-04T12:57:39.255Z,9.15
2023-06-04T12:58:44.530Z,9.88
2023-06-04T12:59:46.900Z,11.05
2023-06-04T13:00:52.727Z,11.10
2023-06-04T13:01:55.749Z,14.23
2023-06-04T13:03:01.199Z,12.07
2023-06-04T13:04:12.880Z,89.97
2023-06-04T13:05:17.151Z,320.70
2023-06-04T13:06:22.063Z,244.85
2023-06-04T13:07:27.447Z,179.90
2023-06-04T13:08:33.466Z,63.58
2023-06-04T13:09:36.566Z,36.72
2023-06-04T13:10:41.834Z,25.80
2023-06-04T13:11:47.354Z,22.48
2023-06-04T13:12:54.950Z,23.33
2023-06-04T13:13:57.170Z,28.02
2023-06-04T13:15:03.685Z,22.30
2023-06-04T13:16:06.226Z,28.20
2023-06-04T13:17:22.206Z,25.63
2023-06-04T13:18:25.580Z,46.35
2023-06-04T13:19:30.630Z,42.90
2023-06-04T13:20:34.464Z,79.85
2023-06-04T13:21:39.833Z,115.35
2023-06-04T13:22:42.099Z,129.73
2023-06-04T13:23:50.976Z,114.03
2023-06-04T13:24:56.993Z,112.15
2023-06-04T13:25:59.400Z,161.18
2023-06-04T13:27:04.190Z,202.77
2023-06-04T13:28:14.613Z,160.88
2023-06-04T13:29:17.654Z,188.82
2023-06-04T13:30:22.559Z,261.77
2023-06-04T13:31:27.416Z,246.80
2023-06-04T13:32:29.997Z,278.00
2023-06-04T13:33:35.644Z,255.82
2023-06-04T13:34:38.355Z,382.50
2023-06-04T13:35:45.781Z,446.70
2023-06-04T13:36:48.149Z,446.63
2023-06-04T13:37:53.058Z,111.60
2023-06-04T13:38:58.402Z,408.00
2023-06-04T13:40:00.753Z,528.03
2023-06-04T13:41:05.869Z,459.25
2023-06-04T13:42:08.548Z,680.97
2023-06-04T13:43:16.982Z,785.15
2023-06-04T13:44:22.300Z,727.10
2023-06-04T13:45:30.425Z,999.90
2023-06-04T13:46:35.821Z,999.90
2023-06-04T13:47:38.537Z,999.90
2023-06-04T13:48:43.788Z,305.08
2023-06-04T13:49:46.354Z,860.80
2023-06-04T13:50:51.503Z,811.70
2023-06-04T13:51:53.959Z,323.15
2023-06-04T13:52:59.042Z,105.20
2023-06-04T13:54:03.814Z,687.65
2023-06-04T13:55:10.026Z,780.05
2023-06-04T13:56:12.304Z,999.90
2023-06-04T13:57:17.456Z,999.90
2023-06-04T13:58:25.028Z,999.90
2023-06-04T13:59:27.432Z,999.90
2023-06-04T14:00:33.741Z,999.90
2023-06-04T14:01:36.342Z,999.90
2023-06-04T14:02:41.515Z,999.90
2023-06-04T14:03:45.608Z,999.90
2023-06-04T14:04:50.773Z,999.90
2023-06-04T14:05:53.905Z,999.90
2023-06-04T14:07:08.447Z,556.97
2023-06-04T14:08:11.265Z,603.38
2023-06-04T14:09:16.218Z,713.78
2023-06-04T14:10:18.553Z,785.20
2023-06-04T14:11:23.714Z,923.97
2023-06-04T14:12:26.373Z,999.90
2023-06-04T14:13:34.292Z,999.90
2023-06-04T14:14:37.711Z,999.90
2023-06-04T14:15:42.782Z,999.90
2023-06-04T14:16:48.218Z,102.72
2023-06-04T14:17:53.537Z,965.10
2023-06-04T14:18:56.300Z,999.90
2023-06-04T14:20:01.438Z,847.05
2023-06-04T14:21:03.878Z,930.47
2023-06-04T14:22:09.323Z,334.30
2023-06-04T14:23:17.396Z,532.25
2023-06-04T14:24:19.797Z,735.50
2023-06-04T14:25:24.935Z,443.92
2023-06-04T14:26:28.284Z,999.90
2023-06-04T14:27:33.629Z,569.25
2023-06-04T14:28:39.581Z,907.88
2023-06-04T14:29:44.945Z,8.15
2023-06-04T14:30:47.574Z,8.77
2023-06-04T14:31:53.148Z,9.68
2023-06-04T14:32:58.213Z,9.15
2023-06-04T14:34:00.735Z,9.10
2023-06-04T14:35:05.835Z,7.93
2023-06-04T14:36:08.544Z,7.70
2023-06-04T14:37:13.750Z,8.10
2023-06-04T14:38:19.370Z,8.55
2023-06-04T14:39:22.975Z,8.45
2023-06-04T14:40:28.435Z,8.18
2023-06-04T14:41:31.571Z,8.15
2023-06-04T14:42:37.104Z,8.90
2023-06-04T14:43:45.560Z,10.50
2023-06-04T14:44:48.717Z,9.75
2023-06-04T14:45:54.477Z,9.40
2023-06-04T14:46:57.594Z,8.93
2023-06-04T14:48:15.065Z,7.68
2023-06-04T14:49:21.714Z,7.40
2023-06-04T14:50:26.375Z,8.35
2023-06-04T14:51:32.995Z,7.47
2023-06-04T14:52:38.027Z,7.70
2023-06-04T14:53:41.825Z,8.43
2023-06-04T14:54:47.241Z,9.43